createdAt,value
2019-01-16T00:01:05.583Z,7.00
2019-01-16T00:03:43.509Z,7.10
2019-01-16T00:06:21.949Z,7.10
2019-01-16T00:09:09.609Z,7.10
2019-01-16T00:12:01.475Z,7.10
2019-01-16T00:20:11.334Z,7.10
2019-01-16T00:22:58.779Z,7.20
2019-01-16T00:25:45.835Z,7.20
2019-01-16T00:28:36.441Z,7.20
2019-01-16T00:31:28.432Z,7.30
2019-01-16T00:34:03.819Z,7.30
2019-01-16T00:36:55.384Z,7.30
2019-01-16T00:39:33.557Z,7.30
2019-01-16T00:42:24.838Z,7.30
2019-01-16T00:45:02.814Z,7.30
2019-01-16T00:47:43.966Z,7.30
2019-01-16T00:50:22.472Z,7.40
2019-01-16T00:52:57.753Z,7.40
2019-01-16T00:55:53.400Z,7.30
2019-01-16T00:58:28.709Z,7.40
2019-01-16T01:01:04.053Z,7.40
2019-01-16T01:04:01.687Z,7.30
2019-01-16T01:06:45.001Z,7.40
2019-01-16T01:09:39.987Z,7.30
2019-01-16T01:12:15.323Z,7.30
2019-01-16T01:14:59.724Z,7.30
2019-01-16T01:17:46.809Z,7.30
2019-01-16T01:20:34.204Z,7.20
2019-01-16T01:23:12.506Z,7.30
2019-01-16T01:26:07.189Z,7.20
2019-01-16T01:28:44.964Z,7.20
2019-01-16T01:31:34.919Z,7.30
2019-01-16T01:34:27.334Z,7.20
2019-01-16T01:37:18.345Z,7.30
2019-01-16T01:40:06.613Z,7.30
2019-01-16T01:42:44.976Z,7.20
2019-01-16T01:48:17.392Z,7.30
2019-01-16T01:51:15.193Z,7.30
2019-01-16T01:54:02.405Z,7.20
2019-01-16T01:59:43.960Z,7.10
2019-01-16T02:02:21.987Z,7.10
2019-01-16T02:04:57.227Z,7.10
2019-01-16T02:10:35.589Z,7.10
2019-01-16T02:13:37.916Z,7.10
2019-01-16T02:16:13.234Z,7.10
2019-01-16T02:18:51.248Z,7.10
2019-01-16T02:21:32.718Z,7.10
2019-01-16T02:27:10.769Z,7.00
2019-01-16T02:29:49.082Z,7.00
2019-01-16T02:32:47.100Z,7.00
2019-01-16T02:35:39.848Z,7.00
2019-01-16T02:38:17.924Z,7.00
2019-01-16T02:40:53.224Z,7.00
2019-01-16T02:43:58.841Z,7.00
2019-01-16T02:46:49.404Z,6.90
2019-01-16T02:49:30.386Z,6.90
2019-01-16T02:52:15.127Z,6.80
2019-01-16T02:54:59.512Z,6.90
2019-01-16T02:58:08.336Z,7.00
2019-01-16T03:00:58.794Z,6.90
2019-01-16T03:04:02.487Z,7.00
2019-01-16T03:06:40.622Z,7.00
2019-01-16T03:09:15.904Z,7.00
2019-01-16T03:12:09.625Z,7.00
2019-01-16T03:14:44.979Z,7.00
2019-01-16T03:20:27.797Z,7.10
2019-01-16T03:23:03.104Z,7.10
2019-01-16T03:25:44.450Z,7.10
2019-01-16T03:28:31.957Z,7.10
2019-01-16T03:31:07.321Z,7.10
2019-01-16T03:33:51.650Z,7.20
2019-01-16T03:36:29.681Z,7.10
2019-01-16T03:39:08.249Z,7.10
2019-01-16T03:41:50.797Z,7.10
2019-01-16T03:44:29.077Z,7.20
2019-01-16T03:47:10.511Z,7.20
2019-01-16T03:49:48.423Z,7.20
2019-01-16T03:52:23.824Z,7.10
2019-01-16T03:55:11.126Z,7.10
2019-01-16T03:57:58.761Z,7.20
2019-01-16T04:00:43.135Z,7.20
2019-01-16T04:03:21.278Z,7.20
2019-01-16T04:06:11.679Z,7.20
2019-01-16T04:08:49.768Z,7.10
2019-01-16T04:14:17.677Z,7.10
2019-01-16T04:19:49.892Z,7.20
2019-01-16T04:22:31.956Z,7.20
2019-01-16T04:25:27.655Z,7.20
2019-01-16T04:28:19.264Z,7.20
2019-01-16T04:31:13.006Z,7.20
2019-01-16T04:33:51.390Z,7.20
2019-01-16T04:36:46.240Z,7.20
2019-01-16T04:39:21.573Z,7.10
2019-01-16T04:42:13.673Z,7.10
2019-01-16T04:45:01.227Z,7.10
2019-01-16T04:47:54.512Z,7.10
2019-01-16T04:50:56.868Z,7.10
2019-01-16T04:53:36.150Z,7.20
2019-01-16T04:56:14.377Z,7.20
2019-01-16T04:58:49.607Z,7.20
2019-01-16T05:01:30.983Z,7.20
2019-01-16T05:04:34.493Z,7.20
2019-01-16T05:07:12.636Z,7.20
2019-01-16T05:09:48.950Z,7.20
2019-01-16T05:12:30.862Z,7.20
2019-01-16T05:21:04.424Z,7.30
2019-01-16T05:23:39.703Z,7.30
2019-01-16T05:26:33.439Z,7.20
2019-01-16T05:29:15.902Z,7.30
2019-01-16T05:31:54.126Z,7.30
2019-01-16T05:34:29.395Z,7.30
2019-01-16T05:37:13.522Z,7.30
2019-01-16T05:39:48.889Z,7.30
2019-01-16T05:42:26.622Z,7.30
2019-01-16T05:45:13.926Z,7.30
2019-01-16T05:48:05.579Z,7.30
2019-01-16T05:50:47.280Z,7.20
2019-01-16T05:53:25.263Z,7.20
2019-01-16T05:56:17.999Z,7.20
2019-01-16T05:59:09.410Z,7.20
2019-01-16T06:01:47.524Z,7.20
2019-01-16T06:04:31.891Z,7.20
2019-01-16T06:07:27.512Z,7.20
2019-01-16T06:10:19.003Z,7.20
2019-01-16T06:13:06.346Z,7.20
2019-01-16T06:15:44.457Z,7.10
2019-01-16T06:18:36.047Z,7.10
2019-01-16T06:21:11.351Z,7.20
2019-01-16T06:23:52.519Z,7.10
2019-01-16T06:26:47.400Z,7.10
2019-01-16T06:35:07.645Z,7.10
2019-01-16T06:37:52.372Z,7.10
2019-01-16T06:40:30.505Z,7.10
2019-01-16T06:43:05.840Z,7.10
2019-01-16T06:45:47.790Z,7.10
2019-01-16T06:48:41.379Z,7.10
2019-01-16T06:54:20.807Z,7.10
2019-01-16T06:57:19.840Z,7.20
2019-01-16T07:00:13.623Z,7.20
2019-01-16T07:02:57.738Z,7.10
2019-01-16T07:05:49.444Z,7.10
2019-01-16T07:08:24.757Z,7.10
2019-01-16T07:11:09.258Z,7.10
2019-01-16T07:13:44.543Z,7.10
2019-01-16T07:16:43.927Z,7.20
2019-01-16T07:19:26.481Z,7.20
2019-01-16T07:22:19.874Z,7.20
2019-01-16T07:25:11.734Z,7.20
2019-01-16T07:30:55.998Z,7.10
2019-01-16T07:33:34.340Z,7.20
2019-01-16T07:36:12.662Z,7.20
2019-01-16T07:38:51.042Z,7.20
2019-01-16T07:41:29.049Z,7.20
2019-01-16T07:44:25.431Z,7.20
2019-01-16T07:47:07.784Z,7.20
2019-01-16T07:52:55.050Z,7.20
2019-01-16T07:55:48.608Z,7.20
2019-01-16T07:58:26.688Z,7.30
2019-01-16T08:01:05.021Z,7.20
2019-01-16T08:03:55.458Z,7.20
2019-01-16T08:06:42.951Z,7.20
2019-01-16T08:09:35.801Z,7.20
2019-01-16T08:12:11.195Z,7.30
2019-01-16T08:14:58.499Z,7.20
2019-01-16T08:17:40.104Z,7.20
2019-01-16T08:20:30.770Z,7.20
2019-01-16T08:23:08.664Z,7.20
2019-01-16T08:28:53.163Z,7.30
2019-01-16T08:31:46.417Z,7.30
2019-01-16T08:34:37.132Z,7.30
2019-01-16T08:37:12.479Z,7.30
2019-01-16T08:39:50.269Z,7.30
2019-01-16T08:42:28.828Z,7.30
2019-01-16T08:45:04.063Z,7.30
2019-01-16T08:47:54.411Z,7.20
2019-01-16T08:50:41.893Z,7.30
2019-01-16T08:53:33.282Z,7.30
2019-01-16T08:56:35.427Z,7.30
2019-01-16T08:59:17.601Z,7.30
2019-01-16T09:02:09.527Z,7.40
2019-01-16T09:04:47.558Z,7.40
2019-01-16T09:07:35.178Z,7.50
2019-01-16T09:10:41.829Z,7.50
2019-01-16T09:13:44.062Z,7.50
2019-01-16T09:16:38.539Z,7.70
2019-01-16T09:19:13.945Z,7.70
2019-01-16T09:21:49.197Z,7.70
2019-01-16T09:24:30.952Z,7.70
2019-01-16T09:27:09.039Z,7.80
2019-01-16T09:30:00.718Z,7.80
2019-01-16T09:32:59.848Z,7.80
2019-01-16T09:35:38.208Z,7.80
2019-01-16T09:38:16.425Z,7.70
2019-01-16T09:40:51.670Z,7.70
2019-01-16T09:43:26.911Z,7.70
2019-01-16T09:46:05.360Z,7.60
2019-01-16T09:48:46.179Z,7.70
2019-01-16T09:51:30.866Z,7.60
2019-01-16T09:54:15.430Z,7.60
2019-01-16T09:59:51.329Z,7.60
2019-01-16T10:02:43.348Z,7.60
2019-01-16T10:05:18.657Z,7.60
2019-01-16T10:08:21.164Z,7.50
2019-01-16T10:11:12.704Z,7.50
2019-01-16T10:14:04.045Z,7.50
2019-01-16T10:16:39.409Z,7.40
2019-01-16T10:22:18.581Z,7.40
2019-01-16T10:24:56.596Z,7.40
2019-01-16T10:27:50.028Z,7.40
2019-01-16T10:30:42.161Z,7.40
2019-01-16T10:33:26.808Z,7.40
2019-01-16T10:39:08.395Z,7.30
2019-01-16T10:42:02.103Z,7.30
2019-01-16T10:44:44.223Z,7.30
2019-01-16T10:47:36.173Z,7.30
2019-01-16T10:53:13.162Z,7.20
2019-01-16T10:55:54.206Z,7.30
2019-01-16T10:58:41.875Z,7.20
2019-01-16T11:01:35.083Z,7.20
2019-01-16T11:04:13.188Z,7.20
2019-01-16T11:07:12.801Z,7.30
2019-01-16T11:10:06.284Z,7.30
2019-01-16T11:12:56.541Z,7.30
2019-01-16T11:15:34.713Z,7.30
2019-01-16T11:18:26.485Z,7.30
2019-01-16T11:21:02.157Z,7.30
2019-01-16T11:23:37.542Z,7.30
2019-01-16T11:26:22.097Z,7.30
2019-01-16T11:29:23.357Z,7.30
2019-01-16T11:32:15.915Z,7.30
2019-01-16T11:35:06.188Z,7.30
2019-01-16T11:37:59.550Z,7.30
2019-01-16T11:40:46.640Z,7.30
2019-01-16T11:43:21.975Z,7.20
2019-01-16T11:46:12.435Z,7.30
2019-01-16T11:48:57.135Z,7.20
2019-01-16T11:51:47.527Z,7.20
2019-01-16T11:54:34.731Z,7.20
2019-01-16T11:57:12.756Z,7.20
2019-01-16T12:00:00.253Z,7.20
2019-01-16T12:02:50.958Z,7.30
2019-01-16T12:05:54.923Z,7.30
2019-01-16T12:08:30.335Z,7.30
2019-01-16T12:11:14.788Z,7.40
2019-01-16T12:13:53.242Z,7.40
2019-01-16T12:16:47.083Z,7.50
2019-01-16T12:19:22.426Z,7.50
2019-01-16T12:22:00.675Z,7.50
2019-01-16T12:24:35.987Z,7.50
2019-01-16T12:27:11.351Z,7.50
2019-01-16T12:29:52.422Z,7.60
2019-01-16T12:32:30.295Z,7.60
2019-01-16T12:35:25.902Z,7.60
2019-01-16T12:38:16.294Z,7.70
2019-01-16T12:41:09.722Z,7.60
2019-01-16T12:46:59.319Z,7.60
2019-01-16T12:49:41.631Z,7.60
2019-01-16T12:52:19.454Z,7.70
2019-01-16T12:57:50.014Z,7.70
2019-01-16T13:00:49.981Z,7.70
2019-01-16T13:03:28.046Z,7.70
2019-01-16T13:06:06.335Z,7.70
2019-01-16T13:08:41.585Z,7.70
2019-01-16T13:11:19.709Z,7.80
2019-01-16T13:14:11.198Z,7.80
2019-01-16T13:16:49.315Z,7.80
2019-01-16T13:19:27.327Z,7.70
2019-01-16T13:22:02.734Z,7.70
2019-01-16T13:24:47.322Z,7.80
2019-01-16T13:27:31.680Z,7.80
2019-01-16T13:30:10.619Z,7.80
2019-01-16T13:33:01.120Z,7.80
2019-01-16T13:35:54.558Z,7.80
2019-01-16T13:38:48.038Z,7.80
2019-01-16T13:41:45.351Z,7.90
2019-01-16T13:50:20.224Z,7.90
2019-01-16T13:53:07.646Z,7.80
2019-01-16T13:55:52.376Z,7.80
2019-01-16T13:58:47.753Z,7.80
2019-01-16T14:04:21.777Z,7.80
2019-01-16T14:06:59.872Z,7.80
2019-01-16T14:10:01.115Z,7.80
2019-01-16T14:15:32.087Z,7.80
2019-01-16T14:18:07.814Z,7.70
2019-01-16T14:20:43.124Z,7.70
2019-01-16T14:23:30.591Z,7.70
2019-01-16T14:26:18.783Z,7.70
2019-01-16T14:28:57.063Z,7.70
2019-01-16T14:31:32.319Z,7.70
2019-01-16T14:34:13.815Z,7.70
2019-01-16T14:37:03.958Z,7.70
2019-01-16T14:39:41.956Z,7.60
2019-01-16T14:42:40.092Z,7.60
2019-01-16T14:45:18.250Z,7.50
2019-01-16T14:48:20.752Z,7.50
2019-01-16T14:51:08.373Z,7.50
2019-01-16T14:53:49.513Z,7.40
2019-01-16T14:56:30.480Z,7.40
2019-01-16T14:59:20.509Z,7.40
2019-01-16T15:01:58.356Z,7.40
2019-01-16T15:04:52.858Z,7.40
2019-01-16T15:07:30.728Z,7.30
2019-01-16T15:10:19.308Z,7.30
2019-01-16T15:13:10.008Z,7.30
2019-01-16T15:15:57.346Z,7.40
2019-01-16T15:18:38.908Z,7.40
2019-01-16T15:21:14.296Z,7.30
2019-01-16T15:26:55.486Z,7.30
2019-01-16T15:29:33.668Z,7.30
2019-01-16T15:32:08.990Z,7.30
2019-01-16T15:34:44.384Z,7.20
2019-01-16T15:37:35.140Z,7.20
2019-01-16T15:40:17.057Z,7.10
2019-01-16T15:43:20.315Z,7.10
2019-01-16T15:46:14.076Z,7.00
2019-01-16T15:48:55.502Z,7.00
2019-01-16T15:51:51.330Z,7.00
2019-01-16T15:54:33.923Z,7.00
2019-01-16T16:00:11.905Z,7.00
2019-01-16T16:03:08.385Z,7.00
2019-01-16T16:05:49.390Z,7.00
2019-01-16T16:08:27.105Z,6.90
2019-01-16T16:11:11.780Z,6.90
2019-01-16T16:13:55.962Z,6.90
2019-01-16T16:16:31.344Z,6.90
2019-01-16T16:22:07.456Z,6.90
2019-01-16T16:24:42.790Z,6.90
2019-01-16T16:27:18.085Z,6.90
2019-01-16T16:30:02.301Z,6.90
2019-01-16T16:32:40.257Z,6.90
2019-01-16T16:35:18.372Z,6.90
2019-01-16T16:37:56.654Z,6.80
2019-01-16T16:43:27.052Z,6.80
2019-01-16T16:46:14.354Z,6.70
2019-01-16T16:48:55.900Z,6.70
2019-01-16T16:51:56.758Z,6.70
2019-01-16T16:54:32.055Z,6.70
2019-01-16T16:57:13.556Z,6.70
2019-01-16T17:00:03.972Z,6.70
2019-01-16T17:02:39.779Z,6.70
2019-01-16T17:05:15.130Z,6.70
2019-01-16T17:08:02.646Z,6.70
2019-01-16T17:11:07.729Z,6.70
2019-01-16T17:13:57.635Z,6.70
2019-01-16T17:16:47.821Z,6.70
2019-01-16T17:22:12.652Z,6.70
2019-01-16T17:24:51.098Z,6.70
2019-01-16T17:27:35.499Z,6.70
2019-01-16T17:30:34.491Z,6.70
2019-01-16T17:33:09.802Z,6.70
2019-01-16T17:36:00.343Z,6.70
2019-01-16T17:38:35.643Z,6.70
2019-01-16T17:41:23.805Z,6.60
2019-01-16T17:44:01.935Z,6.70
2019-01-16T17:47:05.439Z,6.60
2019-01-16T17:49:43.312Z,6.60
2019-01-16T17:52:38.836Z,6.60
2019-01-16T17:55:13.064Z,6.60
2019-01-16T17:57:48.796Z,6.50
2019-01-16T18:00:30.048Z,6.50
2019-01-16T18:03:14.618Z,6.50
2019-01-16T18:06:01.882Z,6.50
2019-01-16T18:11:34.316Z,6.50
2019-01-16T18:14:09.724Z,6.50
2019-01-16T18:17:01.253Z,6.50
2019-01-16T18:19:39.078Z,6.50
2019-01-16T18:22:14.458Z,6.40
2019-01-16T18:24:56.972Z,6.40
2019-01-16T18:28:19.764Z,6.40
2019-01-16T18:31:26.126Z,6.30
2019-01-16T18:34:06.806Z,6.30
2019-01-16T18:39:29.902Z,6.30
2019-01-16T18:42:26.214Z,6.40
2019-01-16T18:45:04.567Z,6.30
2019-01-16T18:47:42.444Z,6.40
2019-01-16T18:50:17.835Z,6.40
2019-01-16T18:52:53.169Z,6.40
2019-01-16T18:58:29.024Z,6.30
2019-01-16T19:01:11.179Z,6.30
2019-01-16T19:04:04.211Z,6.30
2019-01-16T19:06:46.512Z,6.20
2019-01-16T19:09:27.562Z,6.20
2019-01-16T19:12:19.304Z,6.20
2019-01-16T19:15:15.638Z,6.20
2019-01-16T19:17:53.857Z,6.20
2019-01-16T19:20:40.365Z,6.20
2019-01-16T19:23:15.775Z,6.20
2019-01-16T19:25:58.173Z,6.10
2019-01-16T19:28:45.687Z,6.20
2019-01-16T19:31:37.699Z,6.20
2019-01-16T19:34:13.036Z,6.10
2019-01-16T19:36:48.342Z,6.00
2019-01-16T19:39:41.762Z,6.00
2019-01-16T19:42:17.156Z,6.00
2019-01-16T19:45:07.867Z,5.90
2019-01-16T19:47:43.294Z,5.90
2019-01-16T19:50:36.785Z,5.90
2019-01-16T19:53:27.612Z,5.80
2019-01-16T19:56:22.099Z,5.80
2019-01-16T19:58:57.368Z,5.80
2019-01-16T20:01:49.204Z,5.80
2019-01-16T20:04:45.393Z,5.80
2019-01-16T20:07:37.239Z,5.70
2019-01-16T20:10:13.940Z,5.70
2019-01-16T20:12:52.089Z,5.70
2019-01-16T20:15:44.803Z,5.60
2019-01-16T20:18:20.200Z,5.60
2019-01-16T20:21:08.540Z,5.60
2019-01-16T20:23:43.868Z,5.60
2019-01-16T20:26:28.248Z,5.60
2019-01-16T20:29:26.001Z,5.60
2019-01-16T20:35:10.547Z,5.50
2019-01-16T20:37:52.108Z,5.50
2019-01-16T20:40:51.482Z,5.50
2019-01-16T20:43:43.460Z,5.50
2019-01-16T20:46:18.843Z,5.40
2019-01-16T20:49:00.311Z,5.40
2019-01-16T20:51:53.630Z,5.40
2019-01-16T20:54:34.847Z,5.30
2019-01-16T20:57:34.343Z,5.40
2019-01-16T21:00:38.536Z,5.40
2019-01-16T21:03:13.856Z,5.30
2019-01-16T21:05:55.421Z,5.30
2019-01-16T21:08:30.726Z,5.30
2019-01-16T21:11:06.220Z,5.30
2019-01-16T21:13:47.394Z,5.30
2019-01-16T21:16:22.744Z,5.30
2019-01-16T21:18:58.047Z,5.30
2019-01-16T21:21:45.397Z,5.30
2019-01-16T21:24:36.779Z,5.30
2019-01-16T21:27:15.053Z,5.30
2019-01-16T21:30:02.766Z,5.30
2019-01-16T21:32:44.215Z,5.30
2019-01-16T21:35:25.903Z,5.30
2019-01-16T21:38:12.912Z,5.20
2019-01-16T21:40:48.221Z,5.30
2019-01-16T21:43:44.335Z,5.30
2019-01-16T21:46:42.524Z,5.20
2019-01-16T21:49:30.278Z,5.20
2019-01-16T21:52:08.570Z,5.20
2019-01-16T21:54:43.911Z,5.10
2019-01-16T21:57:35.759Z,5.10
2019-01-16T22:00:20.503Z,5.10
2019-01-16T22:03:01.955Z,5.10
2019-01-16T22:05:37.371Z,5.00
2019-01-16T22:08:12.759Z,5.00
2019-01-16T22:10:48.153Z,5.00
2019-01-16T22:13:38.610Z,5.00
2019-01-16T22:16:38.003Z,4.90
2019-01-16T22:19:13.308Z,4.90
2019-01-16T22:21:57.507Z,4.90
2019-01-16T22:24:47.667Z,4.90
2019-01-16T22:33:22.042Z,4.90
2019-01-16T22:36:04.463Z,5.00
2019-01-16T22:39:01.302Z,5.00
2019-01-16T22:41:43.398Z,5.10
2019-01-16T22:44:18.702Z,5.00
2019-01-16T22:47:22.059Z,5.00
2019-01-16T22:50:09.423Z,5.10
2019-01-16T22:53:01.282Z,5.10
2019-01-16T22:55:36.666Z,5.10
2019-01-16T22:58:20.660Z,5.10
2019-01-16T23:01:03.557Z,5.10
2019-01-16T23:03:41.582Z,5.10
2019-01-16T23:06:33.242Z,5.10
2019-01-16T23:09:26.958Z,5.10
2019-01-16T23:12:22.015Z,5.10
2019-01-16T23:14:57.278Z,5.10
2019-01-16T23:17:55.304Z,5.10
2019-01-16T23:20:30.635Z,5.10
2019-01-16T23:23:21.420Z,5.10
2019-01-16T23:26:14.927Z,5.10
2019-01-16T23:29:06.815Z,5.10
2019-01-16T23:34:51.322Z,5.10
2019-01-16T23:37:47.809Z,5.10
2019-01-16T23:40:23.090Z,5.10
2019-01-16T23:42:58.368Z,5.00
2019-01-16T23:45:45.638Z,5.00
2019-01-16T23:48:23.769Z,5.00
2019-01-16T23:50:59.075Z,5.00
2019-01-16T23:56:46.138Z,5.00
2019-01-16T23:59:21.453Z,5.00
